createdAt,value
2023-02-08T00:01:11.612Z,33.23
2023-02-08T00:03:40.929Z,33.60
2023-02-08T00:06:10.043Z,37.83
2023-02-08T00:08:39.153Z,34.53
2023-02-08T00:11:07.993Z,32.70
2023-02-08T00:13:35.859Z,34.60
2023-02-08T00:16:03.848Z,34.60
2023-02-08T00:18:31.933Z,34.87
2023-02-08T00:21:01.102Z,36.17
2023-02-08T00:23:29.079Z,36.80
2023-02-08T00:25:56.916Z,31.70
2023-02-08T00:28:24.801Z,33.83
2023-02-08T00:30:53.303Z,33.53
2023-02-08T00:33:21.400Z,34.77
2023-02-08T00:35:49.496Z,36.20
2023-02-08T00:38:18.739Z,34.70
2023-02-08T00:40:47.040Z,35.30
2023-02-08T00:43:14.908Z,32.27
2023-02-08T00:45:43.362Z,36.03
2023-02-08T00:48:11.242Z,32.20
2023-02-08T00:50:39.493Z,36.23
2023-02-08T00:53:07.523Z,31.57
2023-02-08T00:55:36.694Z,35.87
2023-02-08T00:58:05.443Z,33.67
2023-02-08T01:00:33.279Z,38.07
2023-02-08T01:03:01.213Z,36.77
2023-02-08T01:05:29.044Z,36.50
2023-02-08T01:07:57.977Z,34.17
2023-02-08T01:10:25.890Z,37.63
2023-02-08T01:12:55.801Z,35.90
2023-02-08T01:15:23.837Z,36.17
2023-02-08T01:17:55.050Z,34.27
2023-02-08T01:20:23.794Z,36.50
2023-02-08T01:22:51.720Z,33.93
2023-02-08T01:25:19.631Z,36.00
2023-02-08T01:27:47.552Z,32.63
2023-02-08T01:30:17.474Z,35.47
2023-02-08T01:32:45.353Z,38.33
2023-02-08T01:35:13.161Z,34.90
2023-02-08T01:37:41.025Z,33.57
2023-02-08T01:40:11.742Z,38.30
2023-02-08T01:42:39.738Z,33.03
2023-02-08T01:45:25.562Z,34.10
2023-02-08T01:48:02.960Z,36.90
2023-02-08T01:50:35.425Z,35.37
2023-02-08T01:53:03.861Z,38.40
2023-02-08T01:55:36.250Z,34.33
2023-02-08T01:58:08.179Z,33.67
2023-02-08T02:00:37.465Z,35.37
2023-02-08T02:03:06.499Z,37.13
2023-02-08T02:05:39.740Z,36.90
2023-02-08T02:08:08.506Z,37.30
2023-02-08T02:10:38.496Z,34.40
2023-02-08T02:13:08.947Z,40.20
2023-02-08T02:15:38.509Z,34.50
2023-02-08T02:18:07.772Z,36.30
2023-02-08T02:20:56.504Z,38.90
2023-02-08T02:24:00.783Z,39.50
2023-02-08T02:26:50.618Z,38.87
2023-02-08T02:29:50.941Z,37.50
2023-02-08T02:32:40.937Z,37.57
2023-02-08T02:35:16.543Z,39.83
2023-02-08T02:37:52.016Z,38.20
2023-02-08T02:40:26.778Z,37.67
2023-02-08T02:43:19.672Z,42.73
2023-02-08T02:45:55.575Z,39.83
2023-02-08T02:48:32.024Z,39.47
2023-02-08T02:51:08.136Z,40.70
2023-02-08T02:53:41.921Z,38.07
2023-02-08T02:56:14.450Z,38.60
2023-02-08T02:58:45.079Z,36.90
2023-02-08T03:01:13.435Z,39.07
2023-02-08T03:03:42.629Z,37.90
2023-02-08T03:06:15.651Z,37.43
2023-02-08T03:09:09.754Z,38.80
2023-02-08T03:11:38.548Z,36.00
2023-02-08T03:14:34.683Z,37.80
2023-02-08T03:17:28.675Z,38.93
2023-02-08T03:20:06.924Z,36.53
2023-02-08T03:22:44.139Z,39.67
2023-02-08T03:25:18.302Z,34.23
2023-02-08T03:27:53.780Z,39.13
2023-02-08T03:30:28.822Z,38.27
2023-02-08T03:33:02.851Z,37.90
2023-02-08T03:35:35.568Z,39.20
2023-02-08T03:38:08.081Z,34.07
2023-02-08T03:40:39.026Z,32.87
2023-02-08T03:43:13.838Z,36.70
2023-02-08T03:45:46.453Z,38.40
2023-02-08T03:48:18.330Z,34.63
2023-02-08T03:50:51.275Z,35.17
2023-02-08T03:53:23.006Z,37.53
2023-02-08T03:55:55.842Z,36.13
2023-02-08T03:58:27.090Z,44.57
2023-02-08T04:00:59.646Z,37.93
2023-02-08T04:03:29.753Z,35.70
2023-02-08T04:05:59.207Z,39.23
2023-02-08T04:08:28.431Z,35.30
2023-02-08T04:10:56.299Z,35.90
2023-02-08T04:13:24.156Z,33.93
2023-02-08T04:15:51.988Z,38.53
2023-02-08T04:18:19.856Z,35.97
2023-02-08T04:20:47.694Z,31.83
2023-02-08T04:23:16.891Z,37.17
2023-02-08T04:25:44.960Z,36.20
2023-02-08T04:28:12.841Z,36.47
2023-02-08T04:30:40.989Z,32.67
2023-02-08T04:33:09.053Z,34.40
2023-02-08T04:35:36.853Z,33.60
2023-02-08T04:38:04.768Z,34.83
2023-02-08T04:40:33.956Z,31.10
2023-02-08T04:43:02.330Z,33.50
2023-02-08T04:45:32.087Z,32.80
2023-02-08T04:48:01.435Z,36.67
2023-02-08T04:50:29.333Z,37.80
2023-02-08T04:52:57.196Z,38.30
2023-02-08T04:55:24.999Z,33.53
2023-02-08T04:57:54.189Z,40.43
2023-02-08T05:00:22.022Z,35.80
2023-02-08T05:02:53.957Z,35.83
2023-02-08T05:05:22.685Z,35.57
2023-02-08T05:07:50.530Z,34.83
2023-02-08T05:10:18.709Z,35.53
2023-02-08T05:12:46.928Z,38.97
2023-02-08T05:15:16.137Z,34.10
2023-02-08T05:17:44.068Z,36.63
2023-02-08T05:20:12.773Z,38.60
2023-02-08T05:22:41.345Z,33.93
2023-02-08T05:25:09.876Z,32.67
2023-02-08T05:27:38.434Z,37.90
2023-02-08T05:30:07.069Z,38.47
2023-02-08T05:32:36.327Z,37.40
2023-02-08T05:35:04.434Z,36.80
2023-02-08T05:37:32.301Z,37.27
2023-02-08T05:40:00.264Z,35.33
2023-02-08T05:42:28.188Z,36.40
2023-02-08T05:44:55.983Z,37.87
2023-02-08T05:47:24.152Z,37.67
2023-02-08T05:49:53.297Z,36.83
2023-02-08T05:52:21.246Z,34.67
2023-02-08T05:54:49.094Z,36.17
2023-02-08T05:57:17.064Z,36.83
2023-02-08T05:59:44.995Z,37.30
2023-02-08T06:02:12.835Z,36.40
2023-02-08T06:04:40.745Z,36.40
2023-02-08T06:07:10.049Z,35.00
2023-02-08T06:09:38.114Z,35.17
2023-02-08T06:12:07.114Z,34.23
2023-02-08T06:14:34.967Z,37.70
2023-02-08T06:17:02.754Z,37.63
2023-02-08T06:19:30.626Z,40.13
2023-02-08T06:21:58.452Z,36.63
2023-02-08T06:24:27.725Z,40.60
2023-02-08T06:26:55.519Z,39.57
2023-02-08T06:29:23.596Z,40.40
2023-02-08T06:31:51.520Z,37.90
2023-02-08T06:34:19.541Z,40.33
2023-02-08T06:36:47.398Z,40.57
2023-02-08T06:39:15.248Z,48.10
2023-02-08T06:41:44.473Z,37.20
2023-02-08T06:44:12.366Z,36.90
2023-02-08T06:46:40.169Z,41.73
2023-02-08T06:49:08.201Z,40.17
2023-02-08T06:51:36.038Z,40.90
2023-02-08T06:54:04.074Z,40.67
2023-02-08T06:56:31.949Z,44.43
2023-02-08T06:59:01.155Z,40.90
2023-02-08T07:01:29.016Z,45.77
2023-02-08T07:03:56.879Z,43.30
2023-02-08T07:06:24.829Z,42.53
2023-02-08T07:08:52.734Z,44.40
2023-02-08T07:11:21.933Z,48.97
2023-02-08T07:13:50.850Z,46.53
2023-02-08T07:16:22.221Z,47.10
2023-02-08T07:18:50.109Z,52.03
2023-02-08T07:21:17.999Z,56.10
2023-02-08T07:23:45.938Z,48.57
2023-02-08T07:26:15.059Z,54.00
2023-02-08T07:28:43.379Z,58.40
2023-02-08T07:31:13.554Z,53.30
2023-02-08T07:33:42.972Z,52.53
2023-02-08T07:36:12.085Z,60.97
2023-02-08T07:38:40.546Z,50.83
2023-02-08T07:41:10.199Z,50.67
2023-02-08T07:43:39.535Z,48.80
2023-02-08T07:46:08.993Z,53.93
2023-02-08T07:48:40.053Z,55.10
2023-02-08T07:51:10.420Z,58.37
2023-02-08T07:53:38.736Z,58.40
2023-02-08T07:56:07.123Z,56.23
2023-02-08T07:58:35.108Z,59.97
2023-02-08T08:01:15.853Z,51.53
2023-02-08T08:03:49.896Z,55.20
2023-02-08T08:06:19.217Z,60.30
2023-02-08T08:08:47.638Z,60.03
2023-02-08T08:11:15.784Z,55.53
2023-02-08T08:13:44.200Z,54.37
2023-02-08T08:16:12.418Z,53.47
2023-02-08T08:18:40.503Z,49.47
2023-02-08T08:21:08.851Z,58.43
2023-02-08T08:23:38.447Z,54.73
2023-02-08T08:26:10.884Z,57.23
2023-02-08T08:28:38.904Z,56.07
2023-02-08T08:31:11.224Z,50.47
2023-02-08T08:33:39.351Z,53.43
2023-02-08T08:36:08.011Z,52.37
2023-02-08T08:38:36.993Z,55.43
2023-02-08T08:41:09.977Z,50.17
2023-02-08T08:43:38.097Z,49.83
2023-02-08T08:46:07.083Z,53.53
2023-02-08T08:48:35.495Z,46.67
2023-02-08T08:51:03.849Z,51.90
2023-02-08T08:53:32.012Z,45.50
2023-02-08T08:55:59.866Z,44.97
2023-02-08T08:58:29.114Z,43.00
2023-02-08T09:01:00.078Z,41.17
2023-02-08T09:03:28.346Z,39.80
2023-02-08T09:05:56.252Z,42.57
2023-02-08T09:08:24.123Z,40.73
2023-02-08T09:10:51.923Z,36.33
2023-02-08T09:13:21.196Z,41.10
2023-02-08T09:15:50.791Z,36.10
2023-02-08T09:18:18.801Z,36.87
2023-02-08T09:20:46.783Z,35.67
2023-02-08T09:23:15.896Z,35.30
2023-02-08T09:25:43.710Z,37.60
2023-02-08T09:28:11.668Z,33.87
2023-02-08T09:30:39.546Z,34.80
2023-02-08T09:33:08.801Z,34.20
2023-02-08T09:35:36.578Z,35.33
2023-02-08T09:38:05.372Z,31.53
2023-02-08T09:40:43.021Z,33.67
2023-02-08T09:43:17.084Z,32.67
2023-02-08T09:45:59.819Z,30.17
2023-02-08T09:48:33.981Z,33.63
2023-02-08T09:51:09.819Z,34.23
2023-02-08T09:53:41.073Z,29.73
2023-02-08T09:56:16.530Z,33.33
2023-02-08T09:58:46.451Z,31.97
2023-02-08T10:01:21.020Z,32.83
2023-02-08T10:03:52.855Z,30.80
2023-02-08T10:06:21.894Z,33.57
2023-02-08T10:08:52.858Z,32.77
2023-02-08T10:11:40.298Z,32.10
2023-02-08T10:14:38.939Z,32.33
2023-02-08T10:17:41.071Z,30.73
2023-02-08T10:20:24.434Z,29.50
2023-02-08T10:23:04.844Z,32.73
2023-02-08T10:25:47.277Z,29.53
2023-02-08T10:28:35.552Z,29.63
2023-02-08T10:31:09.977Z,30.80
2023-02-08T10:33:48.208Z,32.23
2023-02-08T10:36:21.482Z,28.00
2023-02-08T10:38:53.200Z,28.50
2023-02-08T10:41:24.192Z,30.43
2023-02-08T10:44:01.483Z,28.63
2023-02-08T10:46:36.437Z,29.03
2023-02-08T10:49:10.676Z,26.73
2023-02-08T10:51:40.372Z,30.03
2023-02-08T10:54:12.504Z,28.37
2023-02-08T10:56:47.387Z,29.97
2023-02-08T10:59:20.171Z,32.70
2023-02-08T11:01:50.314Z,29.13
2023-02-08T11:04:19.199Z,26.80
2023-02-08T11:06:50.437Z,27.63
2023-02-08T11:09:28.872Z,26.70
2023-02-08T11:11:59.609Z,24.10
2023-02-08T11:14:45.370Z,27.90
2023-02-08T11:17:27.194Z,26.37
2023-02-08T11:19:55.518Z,22.33
2023-02-08T11:22:27.492Z,27.03
2023-02-08T11:24:58.695Z,22.67
2023-02-08T11:27:35.000Z,22.53
2023-02-08T11:30:20.916Z,22.63
2023-02-08T11:32:50.525Z,26.00
2023-02-08T11:35:22.931Z,22.93
2023-02-08T11:37:54.002Z,23.67
2023-02-08T11:40:25.107Z,20.77
2023-02-08T11:42:53.668Z,22.83
2023-02-08T11:45:24.400Z,21.77
2023-02-08T11:47:54.660Z,21.10
2023-02-08T11:50:27.564Z,22.37
2023-02-08T11:52:59.857Z,21.00
2023-02-08T11:55:30.129Z,19.20
2023-02-08T11:58:01.590Z,19.60
2023-02-08T12:00:31.877Z,20.70
2023-02-08T12:03:01.766Z,20.83
2023-02-08T12:05:41.448Z,22.93
2023-02-08T12:08:18.624Z,19.47
2023-02-08T12:11:16.212Z,21.47
2023-02-08T12:14:05.552Z,23.30
2023-02-08T12:16:50.574Z,22.07
2023-02-08T12:19:53.679Z,24.23
2023-02-08T12:22:26.317Z,23.03
2023-02-08T12:25:11.304Z,23.63
2023-02-08T12:27:46.946Z,24.03
2023-02-08T12:30:25.146Z,23.87
2023-02-08T12:33:21.401Z,24.77
2023-02-08T12:36:04.572Z,23.30
2023-02-08T12:39:18.870Z,23.90
2023-02-08T12:41:59.148Z,24.70
2023-02-08T12:44:38.683Z,19.43
2023-02-08T12:47:20.208Z,21.70
2023-02-08T12:50:01.778Z,21.80
2023-02-08T12:52:37.121Z,23.37
2023-02-08T12:55:15.622Z,24.03
2023-02-08T12:57:48.987Z,21.77
2023-02-08T13:00:20.840Z,25.77
2023-02-08T13:02:58.151Z,22.47
2023-02-08T13:05:31.718Z,22.47
2023-02-08T13:08:04.814Z,20.87
2023-02-08T13:10:37.339Z,21.13
2023-02-08T13:13:15.649Z,24.73
2023-02-08T13:15:47.348Z,20.83
2023-02-08T13:18:21.317Z,21.57
2023-02-08T13:20:52.944Z,23.03
2023-02-08T13:23:27.251Z,24.20
2023-02-08T13:25:59.003Z,21.87
2023-02-08T13:28:29.171Z,24.43
2023-02-08T13:31:02.111Z,20.27
2023-02-08T13:33:36.483Z,22.40
2023-02-08T13:36:05.056Z,18.63
2023-02-08T13:38:35.724Z,21.03
2023-02-08T13:41:07.934Z,22.57
2023-02-08T13:43:42.592Z,22.87
2023-02-08T13:46:12.870Z,19.87
2023-02-08T13:48:49.070Z,19.60
2023-02-08T13:52:02.245Z,21.33
2023-02-08T13:54:30.420Z,19.20
2023-02-08T13:56:58.899Z,22.73
2023-02-08T13:59:41.229Z,21.40
2023-02-08T14:02:31.044Z,21.90
2023-02-08T14:05:32.481Z,26.77
2023-02-08T14:08:02.168Z,22.80
2023-02-08T14:10:37.464Z,25.80
2023-02-08T14:13:17.055Z,25.50
2023-02-08T14:15:47.730Z,26.70
2023-02-08T14:18:28.303Z,25.90
2023-02-08T14:21:03.212Z,25.60
2023-02-08T14:23:33.332Z,24.60
2023-02-08T14:26:08.351Z,23.43
2023-02-08T14:28:40.201Z,26.13
2023-02-08T14:31:11.885Z,24.57
2023-02-08T14:33:42.264Z,22.67
2023-02-08T14:36:30.225Z,24.03
2023-02-08T14:39:09.668Z,20.37
2023-02-08T14:41:54.270Z,21.83
2023-02-08T14:44:59.347Z,23.77
2023-02-08T14:47:55.019Z,23.83
2023-02-08T14:50:26.301Z,21.23
2023-02-08T14:53:00.956Z,22.67
2023-02-08T14:55:33.224Z,26.97
2023-02-08T14:58:02.701Z,27.33
2023-02-08T15:00:35.161Z,28.00
2023-02-08T15:03:06.450Z,28.67
2023-02-08T15:05:41.472Z,26.27
2023-02-08T15:08:09.766Z,26.47
2023-02-08T15:10:44.825Z,28.70
2023-02-08T15:13:20.326Z,26.90
2023-02-08T15:15:53.670Z,29.87
2023-02-08T15:18:26.360Z,29.00
2023-02-08T15:21:03.713Z,27.57
2023-02-08T15:23:32.284Z,25.80
2023-02-08T15:26:01.843Z,27.03
2023-02-08T15:28:31.615Z,27.47
2023-02-08T15:31:02.585Z,29.70
2023-02-08T15:33:32.860Z,27.67
2023-02-08T15:36:06.131Z,30.20
2023-02-08T15:38:38.363Z,30.07
2023-02-08T15:41:09.747Z,29.80
2023-02-08T15:43:39.708Z,30.53
2023-02-08T15:46:17.716Z,33.53
2023-02-08T15:48:48.588Z,30.00
2023-02-08T15:51:17.113Z,29.77
2023-02-08T15:53:47.196Z,29.40
2023-02-08T15:56:27.032Z,31.13
2023-02-08T15:59:05.380Z,31.90
2023-02-08T16:01:34.350Z,31.37
2023-02-08T16:04:08.166Z,30.07
2023-02-08T16:06:39.886Z,28.97
2023-02-08T16:09:07.990Z,31.73
2023-02-08T16:11:37.649Z,29.33
2023-02-08T16:14:07.706Z,31.33
2023-02-08T16:16:41.108Z,38.10
2023-02-08T16:19:22.765Z,30.83
2023-02-08T16:21:51.294Z,30.83
2023-02-08T16:24:24.899Z,32.53
2023-02-08T16:27:05.578Z,27.50
2023-02-08T16:29:35.715Z,31.20
2023-02-08T16:32:12.619Z,32.60
2023-02-08T16:34:42.735Z,31.83
2023-02-08T16:37:24.542Z,32.10
2023-02-08T16:39:54.289Z,33.13
2023-02-08T16:42:27.633Z,31.50
2023-02-08T16:45:15.169Z,31.20
2023-02-08T16:47:45.113Z,33.10
2023-02-08T16:50:17.460Z,32.90
2023-02-08T16:52:45.809Z,29.60
2023-02-08T16:55:19.599Z,31.47
2023-02-08T16:57:49.656Z,32.27
2023-02-08T17:00:23.295Z,32.13
2023-02-08T17:02:51.371Z,33.60
2023-02-08T17:05:22.391Z,33.40
2023-02-08T17:07:50.395Z,32.60
2023-02-08T17:10:22.601Z,34.83
2023-02-08T17:12:50.456Z,29.03
2023-02-08T17:15:19.372Z,31.13
2023-02-08T17:17:47.323Z,34.53
2023-02-08T17:20:22.895Z,34.53
2023-02-08T17:22:51.688Z,35.23
2023-02-08T17:25:20.340Z,37.47
2023-02-08T17:27:53.059Z,35.10
2023-02-08T17:30:23.951Z,39.07
2023-02-08T17:32:53.413Z,34.70
2023-02-08T17:35:23.397Z,37.17
2023-02-08T17:37:53.437Z,35.93
2023-02-08T17:40:22.985Z,36.57
2023-02-08T17:42:53.160Z,37.00
2023-02-08T17:45:21.687Z,39.47
2023-02-08T17:47:49.862Z,39.70
2023-02-08T17:50:19.383Z,45.77
2023-02-08T17:52:49.135Z,41.50
2023-02-08T17:55:18.992Z,42.40
2023-02-08T17:57:47.682Z,42.17
2023-02-08T18:00:17.751Z,41.07
2023-02-08T18:02:46.887Z,38.93
2023-02-08T18:05:15.626Z,40.30
2023-02-08T18:07:43.714Z,48.33
2023-02-08T18:10:14.192Z,43.17
2023-02-08T18:12:42.775Z,46.33
2023-02-08T18:15:12.950Z,43.60
2023-02-08T18:17:41.311Z,44.57
2023-02-08T18:20:11.719Z,46.87
2023-02-08T18:22:40.038Z,44.20
2023-02-08T18:25:08.864Z,44.30
2023-02-08T18:27:38.121Z,46.07
2023-02-08T18:30:06.554Z,45.77
2023-02-08T18:32:34.634Z,49.07
2023-02-08T18:35:04.203Z,42.70
2023-02-08T18:37:33.068Z,46.27
2023-02-08T18:40:01.238Z,44.47
2023-02-08T18:42:29.344Z,43.23
2023-02-08T18:44:58.497Z,47.63
2023-02-08T18:47:26.488Z,46.23
2023-02-08T18:49:55.145Z,51.20
2023-02-08T18:52:24.559Z,44.57
2023-02-08T18:54:52.662Z,47.50
2023-02-08T18:57:20.679Z,49.83
2023-02-08T18:59:48.775Z,49.07
2023-02-08T19:02:20.844Z,44.73
2023-02-08T19:04:49.384Z,44.20
2023-02-08T19:07:17.341Z,49.10
2023-02-08T19:09:45.300Z,48.00
2023-02-08T19:12:15.290Z,45.40
2023-02-08T19:14:44.187Z,46.93
2023-02-08T19:17:14.776Z,45.60
2023-02-08T19:19:44.248Z,44.43
2023-02-08T19:22:12.638Z,47.30
2023-02-08T19:24:40.485Z,50.73
2023-02-08T19:27:08.373Z,44.37
2023-02-08T19:29:36.597Z,51.53
2023-02-08T19:32:04.799Z,42.13
2023-02-08T19:34:32.692Z,45.83
2023-02-08T19:37:02.291Z,44.80
2023-02-08T19:39:30.461Z,43.40
2023-02-08T19:41:59.092Z,48.17
2023-02-08T19:44:30.109Z,44.97
2023-02-08T19:46:58.865Z,44.70
2023-02-08T19:49:28.211Z,45.70
2023-02-08T19:51:56.624Z,44.40
2023-02-08T19:54:25.812Z,47.87
2023-02-08T19:56:54.855Z,47.83
2023-02-08T19:59:25.042Z,43.03
2023-02-08T20:01:53.629Z,43.00
2023-02-08T20:04:21.658Z,48.60
2023-02-08T20:06:52.514Z,45.07
2023-02-08T20:09:20.456Z,46.03
2023-02-08T20:11:57.352Z,41.87
2023-02-08T20:14:26.304Z,46.07
2023-02-08T20:16:54.305Z,41.10
2023-02-08T20:19:22.233Z,56.37
2023-02-08T20:21:50.104Z,41.97
2023-02-08T20:24:18.565Z,40.07
2023-02-08T20:26:48.823Z,44.00
2023-02-08T20:29:17.836Z,43.03
2023-02-08T20:31:47.809Z,46.05
2023-02-08T20:34:18.562Z,42.57
2023-02-08T20:37:05.232Z,43.17
2023-02-08T20:39:35.256Z,41.90
2023-02-08T20:42:04.818Z,44.40
2023-02-08T20:44:32.722Z,44.97
2023-02-08T20:47:00.895Z,45.73
2023-02-08T20:49:30.672Z,43.47
2023-02-08T20:51:58.696Z,40.93
2023-02-08T20:54:26.591Z,41.57
2023-02-08T20:56:55.042Z,40.03
2023-02-08T20:59:24.284Z,43.77
2023-02-08T21:01:52.588Z,55.03
2023-02-08T21:04:23.210Z,44.23
2023-02-08T21:06:52.058Z,41.53
2023-02-08T21:09:21.014Z,45.37
2023-02-08T21:11:48.950Z,42.40
2023-02-08T21:14:20.521Z,43.43
2023-02-08T21:16:51.937Z,45.20
2023-02-08T21:19:21.063Z,47.90
2023-02-08T21:21:52.218Z,45.20
2023-02-08T21:24:20.637Z,41.90
2023-02-08T21:26:48.491Z,43.83
2023-02-08T21:29:16.898Z,45.97
2023-02-08T21:31:45.150Z,45.63
2023-02-08T21:34:14.597Z,43.80
2023-02-08T21:36:42.448Z,42.07
2023-02-08T21:39:10.408Z,44.83
2023-02-08T21:41:38.263Z,45.83
2023-02-08T21:44:08.042Z,45.33
2023-02-08T21:46:36.110Z,46.10
2023-02-08T21:49:23.117Z,44.27
2023-02-08T21:52:10.313Z,45.23
2023-02-08T21:54:52.128Z,44.73
2023-02-08T21:57:21.833Z,52.03
2023-02-08T21:59:51.624Z,47.37
2023-02-08T22:02:25.338Z,43.77
2023-02-08T22:04:54.580Z,49.73
2023-02-08T22:07:24.042Z,47.33
2023-02-08T22:09:52.484Z,50.40
2023-02-08T22:12:22.887Z,52.57
2023-02-08T22:14:51.403Z,50.77
2023-02-08T22:17:19.432Z,50.17
2023-02-08T22:19:47.624Z,51.13
2023-02-08T22:22:15.497Z,49.70
2023-02-08T22:24:44.791Z,46.73
2023-02-08T22:27:13.285Z,47.80
2023-02-08T22:29:41.159Z,54.03
2023-02-08T22:32:09.909Z,51.77
2023-02-08T22:34:38.659Z,53.60
2023-02-08T22:37:07.563Z,51.57
2023-02-08T22:39:35.749Z,52.07
2023-02-08T22:42:08.618Z,51.27
2023-02-08T22:44:37.404Z,49.13
2023-02-08T22:47:06.491Z,50.63
2023-02-08T22:49:34.412Z,57.43
2023-02-08T22:52:02.993Z,53.87
2023-02-08T22:54:30.958Z,54.27
2023-02-08T22:56:58.945Z,48.10
2023-02-08T22:59:28.349Z,57.30
2023-02-08T23:01:56.416Z,55.00
2023-02-08T23:04:24.302Z,52.80
2023-02-08T23:06:52.470Z,54.80
2023-02-08T23:09:20.979Z,50.63
2023-02-08T23:11:49.020Z,50.60
2023-02-08T23:14:17.505Z,49.70
2023-02-08T23:16:46.851Z,54.27
2023-02-08T23:19:15.710Z,58.50
2023-02-08T23:21:44.018Z,57.27
2023-02-08T23:24:12.392Z,55.87
2023-02-08T23:26:40.348Z,56.50
2023-02-08T23:29:08.307Z,56.57
2023-02-08T23:31:36.282Z,56.53
2023-02-08T23:34:05.601Z,55.20
2023-02-08T23:36:33.435Z,55.27
2023-02-08T23:39:03.266Z,61.87
2023-02-08T23:41:31.161Z,59.10
2023-02-08T23:43:59.161Z,59.77
2023-02-08T23:46:28.752Z,59.47
2023-02-08T23:48:56.840Z,58.20
2023-02-08T23:51:27.038Z,57.07
2023-02-08T23:53:55.722Z,61.00
2023-02-08T23:56:25.942Z,61.07
2023-02-08T23:58:56.628Z,63.00
